sensor_id;sensor_type;location;lat;lon;timestamp;P1;durP1;ratioP1;P2;durP2;ratioP2
51459;SDS011;37534;39.772;2.718;2023-03-23T00:01:05;1.55;;;1.15;;
51459;SDS011;37534;39.772;2.718;2023-03-23T00:03:35;2.55;;;1.70;;
51459;SDS011;37534;39.772;2.718;2023-03-23T00:06:00;7.97;;;2.22;;
51459;SDS011;37534;39.772;2.718;2023-03-23T00:08:35;3.38;;;2.22;;
51459;SDS011;37534;39.772;2.718;2023-03-23T00:11:03;6.25;;;2.15;;
51459;SDS011;37534;39.772;2.718;2023-03-23T00:13:29;4.57;;;2.05;;
51459;SDS011;37534;39.772;2.718;2023-03-23T00:15:56;2.20;;;1.42;;
51459;SDS011;37534;39.772;2.718;2023-03-23T00:18:24;1.70;;;1.20;;
51459;SDS011;37534;39.772;2.718;2023-03-23T00:20:54;1.77;;;1.20;;
51459;SDS011;37534;39.772;2.718;2023-03-23T00:23:22;1.45;;;1.08;;
51459;SDS011;37534;39.772;2.718;2023-03-23T00:25:50;1.73;;;1.63;;
51459;SDS011;37534;39.772;2.718;2023-03-23T00:28:18;4.18;;;2.30;;
51459;SDS011;37534;39.772;2.718;2023-03-23T00:33:29;3.10;;;1.23;;
51459;SDS011;37534;39.772;2.718;2023-03-23T00:36:05;3.65;;;2.65;;
51459;SDS011;37534;39.772;2.718;2023-03-23T00:38:33;2.17;;;1.75;;
51459;SDS011;37534;39.772;2.718;2023-03-23T00:41:00;2.58;;;1.90;;
51459;SDS011;37534;39.772;2.718;2023-03-23T00:43:27;2.53;;;1.88;;
51459;SDS011;37534;39.772;2.718;2023-03-23T00:45:54;1.90;;;1.15;;
51459;SDS011;37534;39.772;2.718;2023-03-23T00:48:20;1.15;;;1.02;;
51459;SDS011;37534;39.772;2.718;2023-03-23T00:50:46;1.42;;;1.25;;
51459;SDS011;37534;39.772;2.718;2023-03-23T00:53:12;4.20;;;1.08;;
51459;SDS011;37534;39.772;2.718;2023-03-23T00:55:39;0.73;;;0.57;;
51459;SDS011;37534;39.772;2.718;2023-03-23T00:58:07;3.38;;;1.25;;
51459;SDS011;37534;39.772;2.718;2023-03-23T01:00:33;1.60;;;1.23;;
51459;SDS011;37534;39.772;2.718;2023-03-23T01:02:58;1.63;;;1.10;;
51459;SDS011;37534;39.772;2.718;2023-03-23T01:05:24;2.10;;;1.40;;
51459;SDS011;37534;39.772;2.718;2023-03-23T01:07:59;1.98;;;1.50;;
51459;SDS011;37534;39.772;2.718;2023-03-23T01:10:25;1.50;;;0.95;;
51459;SDS011;37534;39.772;2.718;2023-03-23T01:12:57;4.85;;;1.10;;
51459;SDS011;37534;39.772;2.718;2023-03-23T01:15:25;1.98;;;1.27;;
51459;SDS011;37534;39.772;2.718;2023-03-23T01:17:51;1.70;;;1.33;;
51459;SDS011;37534;39.772;2.718;2023-03-23T01:20:16;2.30;;;1.13;;
51459;SDS011;37534;39.772;2.718;2023-03-23T01:22:42;0.80;;;0.80;;
51459;SDS011;37534;39.772;2.718;2023-03-23T01:25:08;1.15;;;1.05;;
51459;SDS011;37534;39.772;2.718;2023-03-23T01:27:36;1.40;;;0.93;;
51459;SDS011;37534;39.772;2.718;2023-03-23T01:30:03;0.90;;;0.90;;
51459;SDS011;37534;39.772;2.718;2023-03-23T01:32:29;1.15;;;1.00;;
51459;SDS011;37534;39.772;2.718;2023-03-23T01:34:55;1.65;;;1.02;;
51459;SDS011;37534;39.772;2.718;2023-03-23T01:37:21;2.08;;;0.82;;
51459;SDS011;37534;39.772;2.718;2023-03-23T01:39:52;1.00;;;1.00;;
51459;SDS011;37534;39.772;2.718;2023-03-23T01:42:20;0.80;;;0.80;;
51459;SDS011;37534;39.772;2.718;2023-03-23T01:47:13;2.28;;;0.88;;
51459;SDS011;37534;39.772;2.718;2023-03-23T01:49:40;1.50;;;1.40;;
51459;SDS011;37534;39.772;2.718;2023-03-23T01:54:43;0.90;;;0.90;;
51459;SDS011;37534;39.772;2.718;2023-03-23T01:57:12;1.20;;;0.95;;
51459;SDS011;37534;39.772;2.718;2023-03-23T01:59:42;3.05;;;1.42;;
51459;SDS011;37534;39.772;2.718;2023-03-23T02:02:11;2.70;;;1.00;;
51459;SDS011;37534;39.772;2.718;2023-03-23T02:04:37;0.80;;;0.80;;
51459;SDS011;37534;39.772;2.718;2023-03-23T02:07:06;1.58;;;1.00;;
51459;SDS011;37534;39.772;2.718;2023-03-23T02:09:33;0.90;;;0.90;;
51459;SDS011;37534;39.772;2.718;2023-03-23T02:11:59;3.45;;;1.20;;
51459;SDS011;37534;39.772;2.718;2023-03-23T02:14:26;4.75;;;0.93;;
51459;SDS011;37534;39.772;2.718;2023-03-23T02:27:20;2.42;;;1.42;;
51459;SDS011;37534;39.772;2.718;2023-03-23T02:30:18;1.10;;;1.00;;
51459;SDS011;37534;39.772;2.718;2023-03-23T02:33:11;2.38;;;1.23;;
51459;SDS011;37534;39.772;2.718;2023-03-23T02:41:30;1.00;;;0.98;;
51459;SDS011;37534;39.772;2.718;2023-03-23T02:44:02;0.85;;;0.82;;
51459;SDS011;37534;39.772;2.718;2023-03-23T02:46:29;2.50;;;0.90;;
51459;SDS011;37534;39.772;2.718;2023-03-23T02:48:56;7.18;;;1.42;;
51459;SDS011;37534;39.772;2.718;2023-03-23T02:51:24;0.68;;;0.68;;
51459;SDS011;37534;39.772;2.718;2023-03-23T02:53:51;0.65;;;0.60;;
51459;SDS011;37534;39.772;2.718;2023-03-23T02:56:20;0.85;;;0.85;;
51459;SDS011;37534;39.772;2.718;2023-03-23T02:58:48;0.68;;;0.68;;
51459;SDS011;37534;39.772;2.718;2023-03-23T03:01:14;0.68;;;0.60;;
51459;SDS011;37534;39.772;2.718;2023-03-23T03:04:11;0.88;;;0.88;;
51459;SDS011;37534;39.772;2.718;2023-03-23T03:06:46;1.20;;;1.20;;
51459;SDS011;37534;39.772;2.718;2023-03-23T03:12:05;0.60;;;0.60;;
51459;SDS011;37534;39.772;2.718;2023-03-23T03:15:40;1.65;;;1.15;;
51459;SDS011;37534;39.772;2.718;2023-03-23T03:18:03;1.20;;;0.68;;
51459;SDS011;37534;39.772;2.718;2023-03-23T03:20:45;3.00;;;0.65;;
51459;SDS011;37534;39.772;2.718;2023-03-23T03:23:14;0.77;;;0.77;;
51459;SDS011;37534;39.772;2.718;2023-03-23T03:25:41;0.85;;;0.85;;
51459;SDS011;37534;39.772;2.718;2023-03-23T03:28:13;1.30;;;0.70;;
51459;SDS011;37534;39.772;2.718;2023-03-23T03:30:41;0.95;;;0.60;;
51459;SDS011;37534;39.772;2.718;2023-03-23T03:33:09;2.83;;;1.00;;
51459;SDS011;37534;39.772;2.718;2023-03-23T03:35:36;0.68;;;0.68;;
51459;SDS011;37534;39.772;2.718;2023-03-23T03:38:06;0.60;;;0.60;;
51459;SDS011;37534;39.772;2.718;2023-03-23T03:40:33;0.77;;;0.77;;
51459;SDS011;37534;39.772;2.718;2023-03-23T03:42:59;1.00;;;0.68;;
51459;SDS011;37534;39.772;2.718;2023-03-23T03:45:25;0.63;;;0.63;;
51459;SDS011;37534;39.772;2.718;2023-03-23T03:47:50;0.80;;;0.80;;
51459;SDS011;37534;39.772;2.718;2023-03-23T03:50:16;1.65;;;1.23;;
51459;SDS011;37534;39.772;2.718;2023-03-23T03:52:41;0.98;;;0.98;;
51459;SDS011;37534;39.772;2.718;2023-03-23T03:55:08;0.70;;;0.70;;
51459;SDS011;37534;39.772;2.718;2023-03-23T03:57:35;0.98;;;0.98;;
51459;SDS011;37534;39.772;2.718;2023-03-23T04:00:01;1.75;;;0.82;;
51459;SDS011;37534;39.772;2.718;2023-03-23T04:02:39;0.95;;;0.95;;
51459;SDS011;37534;39.772;2.718;2023-03-23T04:05:05;0.80;;;0.80;;
51459;SDS011;37534;39.772;2.718;2023-03-23T04:07:31;0.90;;;0.90;;
51459;SDS011;37534;39.772;2.718;2023-03-23T04:09:57;0.88;;;0.88;;
51459;SDS011;37534;39.772;2.718;2023-03-23T04:12:22;1.00;;;0.80;;
51459;SDS011;37534;39.772;2.718;2023-03-23T04:14:48;1.00;;;1.00;;
51459;SDS011;37534;39.772;2.718;2023-03-23T04:17:14;0.77;;;0.77;;
51459;SDS011;37534;39.772;2.718;2023-03-23T04:19:39;1.17;;;0.60;;
51459;SDS011;37534;39.772;2.718;2023-03-23T04:22:05;1.27;;;0.90;;
51459;SDS011;37534;39.772;2.718;2023-03-23T04:24:31;1.00;;;0.85;;
51459;SDS011;37534;39.772;2.718;2023-03-23T04:26:58;4.22;;;0.63;;
51459;SDS011;37534;39.772;2.718;2023-03-23T04:29:24;0.35;;;0.35;;
51459;SDS011;37534;39.772;2.718;2023-03-23T04:31:50;0.52;;;0.52;;
51459;SDS011;37534;39.772;2.718;2023-03-23T04:34:17;1.40;;;0.60;;
51459;SDS011;37534;39.772;2.718;2023-03-23T04:36:44;2.63;;;0.90;;
51459;SDS011;37534;39.772;2.718;2023-03-23T04:39:11;0.57;;;0.57;;
51459;SDS011;37534;39.772;2.718;2023-03-23T04:41:38;0.70;;;0.68;;
51459;SDS011;37534;39.772;2.718;2023-03-23T04:44:04;0.85;;;0.60;;
51459;SDS011;37534;39.772;2.718;2023-03-23T04:46:30;2.08;;;0.70;;
51459;SDS011;37534;39.772;2.718;2023-03-23T04:48:57;1.00;;;0.77;;
51459;SDS011;37534;39.772;2.718;2023-03-23T04:51:24;1.55;;;1.23;;
51459;SDS011;37534;39.772;2.718;2023-03-23T04:54:01;0.65;;;0.65;;
51459;SDS011;37534;39.772;2.718;2023-03-23T04:56:26;0.93;;;0.70;;
51459;SDS011;37534;39.772;2.718;2023-03-23T04:58:52;2.05;;;1.05;;
51459;SDS011;37534;39.772;2.718;2023-03-23T05:01:17;2.42;;;0.95;;
51459;SDS011;37534;39.772;2.718;2023-03-23T05:03:43;0.60;;;0.60;;
51459;SDS011;37534;39.772;2.718;2023-03-23T05:06:09;0.50;;;0.50;;
51459;SDS011;37534;39.772;2.718;2023-03-23T05:08:35;1.50;;;1.27;;
51459;SDS011;37534;39.772;2.718;2023-03-23T05:11:04;0.60;;;0.60;;
51459;SDS011;37534;39.772;2.718;2023-03-23T05:13:30;5.45;;;0.50;;
51459;SDS011;37534;39.772;2.718;2023-03-23T05:15:56;1.33;;;0.57;;
51459;SDS011;37534;39.772;2.718;2023-03-23T05:18:22;0.98;;;0.60;;
51459;SDS011;37534;39.772;2.718;2023-03-23T05:20:47;1.38;;;0.80;;
51459;SDS011;37534;39.772;2.718;2023-03-23T05:23:13;1.48;;;0.50;;
51459;SDS011;37534;39.772;2.718;2023-03-23T05:25:39;3.28;;;1.20;;
51459;SDS011;37534;39.772;2.718;2023-03-23T05:28:08;0.50;;;0.50;;
51459;SDS011;37534;39.772;2.718;2023-03-23T05:30:35;1.58;;;0.50;;
51459;SDS011;37534;39.772;2.718;2023-03-23T05:33:03;0.77;;;0.77;;
51459;SDS011;37534;39.772;2.718;2023-03-23T05:35:29;1.00;;;0.80;;
51459;SDS011;37534;39.772;2.718;2023-03-23T05:37:55;1.10;;;1.00;;
51459;SDS011;37534;39.772;2.718;2023-03-23T05:40:22;8.77;;;0.90;;
51459;SDS011;37534;39.772;2.718;2023-03-23T05:42:50;1.55;;;0.90;;
51459;SDS011;37534;39.772;2.718;2023-03-23T05:45:16;0.73;;;0.73;;
51459;SDS011;37534;39.772;2.718;2023-03-23T05:47:43;0.85;;;0.85;;
51459;SDS011;37534;39.772;2.718;2023-03-23T05:50:09;0.88;;;0.88;;
51459;SDS011;37534;39.772;2.718;2023-03-23T05:52:36;1.67;;;0.77;;
51459;SDS011;37534;39.772;2.718;2023-03-23T05:55:02;0.98;;;0.82;;
51459;SDS011;37534;39.772;2.718;2023-03-23T05:57:28;1.08;;;0.98;;
51459;SDS011;37534;39.772;2.718;2023-03-23T05:59:54;1.42;;;1.00;;
51459;SDS011;37534;39.772;2.718;2023-03-23T06:02:20;2.30;;;0.90;;
51459;SDS011;37534;39.772;2.718;2023-03-23T06:04:48;2.38;;;0.88;;
51459;SDS011;37534;39.772;2.718;2023-03-23T06:07:14;1.25;;;0.85;;
51459;SDS011;37534;39.772;2.718;2023-03-23T06:09:40;2.40;;;1.15;;
51459;SDS011;37534;39.772;2.718;2023-03-23T06:12:07;2.10;;;1.10;;
51459;SDS011;37534;39.772;2.718;2023-03-23T06:14:34;1.38;;;0.70;;
51459;SDS011;37534;39.772;2.718;2023-03-23T06:17:00;1.20;;;1.10;;
51459;SDS011;37534;39.772;2.718;2023-03-23T06:19:26;1.58;;;1.02;;
51459;SDS011;37534;39.772;2.718;2023-03-23T06:21:52;1.08;;;1.00;;
51459;SDS011;37534;39.772;2.718;2023-03-23T06:24:20;3.35;;;1.20;;
51459;SDS011;37534;39.772;2.718;2023-03-23T06:26:46;1.50;;;1.35;;
51459;SDS011;37534;39.772;2.718;2023-03-23T06:29:12;1.20;;;1.20;;
51459;SDS011;37534;39.772;2.718;2023-03-23T06:31:42;1.80;;;1.50;;
51459;SDS011;37534;39.772;2.718;2023-03-23T06:34:12;3.15;;;1.73;;
51459;SDS011;37534;39.772;2.718;2023-03-23T06:36:38;5.13;;;2.40;;
51459;SDS011;37534;39.772;2.718;2023-03-23T06:39:04;0.80;;;0.80;;
51459;SDS011;37534;39.772;2.718;2023-03-23T06:41:30;1.98;;;1.67;;
51459;SDS011;37534;39.772;2.718;2023-03-23T06:43:57;1.55;;;1.00;;
51459;SDS011;37534;39.772;2.718;2023-03-23T06:46:23;1.08;;;0.90;;
51459;SDS011;37534;39.772;2.718;2023-03-23T06:48:49;2.15;;;0.90;;
51459;SDS011;37534;39.772;2.718;2023-03-23T06:51:15;1.30;;;1.20;;
51459;SDS011;37534;39.772;2.718;2023-03-23T06:53:42;2.05;;;1.52;;
51459;SDS011;37534;39.772;2.718;2023-03-23T06:56:08;13.60;;;1.73;;
51459;SDS011;37534;39.772;2.718;2023-03-23T06:58:33;2.22;;;1.48;;
51459;SDS011;37534;39.772;2.718;2023-03-23T07:00:59;1.67;;;1.58;;
51459;SDS011;37534;39.772;2.718;2023-03-23T07:03:26;8.15;;;1.92;;
51459;SDS011;37534;39.772;2.718;2023-03-23T07:05:52;1.38;;;1.27;;
51459;SDS011;37534;39.772;2.718;2023-03-23T07:08:19;1.80;;;1.30;;
51459;SDS011;37534;39.772;2.718;2023-03-23T07:10:45;1.58;;;1.45;;
51459;SDS011;37534;39.772;2.718;2023-03-23T07:13:11;2.03;;;1.80;;
51459;SDS011;37534;39.772;2.718;2023-03-23T07:15:37;7.20;;;3.17;;
51459;SDS011;37534;39.772;2.718;2023-03-23T07:18:04;5.40;;;2.25;;
51459;SDS011;37534;39.772;2.718;2023-03-23T07:20:29;2.95;;;2.42;;
51459;SDS011;37534;39.772;2.718;2023-03-23T07:22:55;5.10;;;2.30;;
51459;SDS011;37534;39.772;2.718;2023-03-23T07:25:21;3.95;;;2.28;;
51459;SDS011;37534;39.772;2.718;2023-03-23T07:27:46;2.97;;;2.38;;
51459;SDS011;37534;39.772;2.718;2023-03-23T07:30:13;9.15;;;2.90;;
51459;SDS011;37534;39.772;2.718;2023-03-23T07:32:39;6.90;;;2.75;;
51459;SDS011;37534;39.772;2.718;2023-03-23T07:35:06;4.25;;;2.33;;
51459;SDS011;37534;39.772;2.718;2023-03-23T07:37:34;10.75;;;4.57;;
51459;SDS011;37534;39.772;2.718;2023-03-23T07:40:00;3.03;;;2.72;;
51459;SDS011;37534;39.772;2.718;2023-03-23T07:42:39;2.78;;;2.25;;
51459;SDS011;37534;39.772;2.718;2023-03-23T07:45:09;2.15;;;1.50;;
51459;SDS011;37534;39.772;2.718;2023-03-23T07:47:36;0.70;;;0.70;;
51459;SDS011;37534;39.772;2.718;2023-03-23T07:50:03;2.95;;;1.63;;
51459;SDS011;37534;39.772;2.718;2023-03-23T07:52:29;1.58;;;1.48;;
51459;SDS011;37534;39.772;2.718;2023-03-23T07:54:56;3.40;;;0.98;;
51459;SDS011;37534;39.772;2.718;2023-03-23T07:57:21;1.17;;;0.90;;
51459;SDS011;37534;39.772;2.718;2023-03-23T07:59:47;0.77;;;0.77;;
51459;SDS011;37534;39.772;2.718;2023-03-23T08:02:13;3.63;;;1.30;;
51459;SDS011;37534;39.772;2.718;2023-03-23T08:04:38;7.35;;;6.65;;
51459;SDS011;37534;39.772;2.718;2023-03-23T08:07:04;40.85;;;29.38;;
51459;SDS011;37534;39.772;2.718;2023-03-23T08:09:30;24.58;;;15.30;;
51459;SDS011;37534;39.772;2.718;2023-03-23T08:11:56;3.67;;;3.28;;
51459;SDS011;37534;39.772;2.718;2023-03-23T08:14:22;8.20;;;5.28;;
51459;SDS011;37534;39.772;2.718;2023-03-23T08:16:51;6.97;;;5.53;;
51459;SDS011;37534;39.772;2.718;2023-03-23T08:19:17;5.38;;;4.47;;
51459;SDS011;37534;39.772;2.718;2023-03-23T08:21:43;3.97;;;3.10;;
51459;SDS011;37534;39.772;2.718;2023-03-23T08:24:08;7.38;;;4.13;;
51459;SDS011;37534;39.772;2.718;2023-03-23T08:26:36;4.18;;;2.80;;
51459;SDS011;37534;39.772;2.718;2023-03-23T08:29:03;3.40;;;3.10;;
51459;SDS011;37534;39.772;2.718;2023-03-23T08:31:29;5.55;;;2.40;;
51459;SDS011;37534;39.772;2.718;2023-03-23T08:33:55;4.43;;;1.60;;
51459;SDS011;37534;39.772;2.718;2023-03-23T08:36:22;3.08;;;1.55;;
51459;SDS011;37534;39.772;2.718;2023-03-23T08:38:48;2.13;;;1.85;;
51459;SDS011;37534;39.772;2.718;2023-03-23T08:41:16;3.97;;;3.55;;
51459;SDS011;37534;39.772;2.718;2023-03-23T08:43:42;2.55;;;2.13;;
51459;SDS011;37534;39.772;2.718;2023-03-23T08:46:09;2.90;;;1.95;;
51459;SDS011;37534;39.772;2.718;2023-03-23T08:48:36;3.88;;;2.85;;
51459;SDS011;37534;39.772;2.718;2023-03-23T08:51:03;2.92;;;2.38;;
51459;SDS011;37534;39.772;2.718;2023-03-23T08:53:30;6.53;;;2.17;;
51459;SDS011;37534;39.772;2.718;2023-03-23T08:56:02;1.17;;;1.10;;
51459;SDS011;37534;39.772;2.718;2023-03-23T08:58:33;5.68;;;2.78;;
51459;SDS011;37534;39.772;2.718;2023-03-23T09:00:59;1.65;;;1.50;;
51459;SDS011;37534;39.772;2.718;2023-03-23T09:03:25;1.00;;;1.00;;
51459;SDS011;37534;39.772;2.718;2023-03-23T09:05:51;3.35;;;0.90;;
51459;SDS011;37534;39.772;2.718;2023-03-23T09:08:18;2.28;;;1.08;;
51459;SDS011;37534;39.772;2.718;2023-03-23T09:10:44;1.80;;;0.73;;
51459;SDS011;37534;39.772;2.718;2023-03-23T09:13:09;1.80;;;0.80;;
51459;SDS011;37534;39.772;2.718;2023-03-23T09:15:35;4.25;;;1.30;;
51459;SDS011;37534;39.772;2.718;2023-03-23T09:18:01;1.38;;;0.93;;
51459;SDS011;37534;39.772;2.718;2023-03-23T09:20:28;1.02;;;0.95;;
51459;SDS011;37534;39.772;2.718;2023-03-23T09:22:55;1.27;;;1.17;;
51459;SDS011;37534;39.772;2.718;2023-03-23T09:25:23;2.05;;;0.68;;
51459;SDS011;37534;39.772;2.718;2023-03-23T09:27:53;3.63;;;0.73;;
51459;SDS011;37534;39.772;2.718;2023-03-23T09:30:21;1.77;;;0.75;;
51459;SDS011;37534;39.772;2.718;2023-03-23T09:32:52;1.13;;;0.82;;
51459;SDS011;37534;39.772;2.718;2023-03-23T09:35:19;1.73;;;0.98;;
51459;SDS011;37534;39.772;2.718;2023-03-23T09:37:47;1.15;;;0.73;;
51459;SDS011;37534;39.772;2.718;2023-03-23T09:40:14;3.13;;;0.80;;
51459;SDS011;37534;39.772;2.718;2023-03-23T09:45:48;2.28;;;1.08;;
51459;SDS011;37534;39.772;2.718;2023-03-23T09:51:15;0.80;;;0.80;;
51459;SDS011;37534;39.772;2.718;2023-03-23T09:53:42;2.92;;;0.90;;
51459;SDS011;37534;39.772;2.718;2023-03-23T09:56:14;2.33;;;0.85;;
51459;SDS011;37534;39.772;2.718;2023-03-23T09:58:46;0.98;;;0.60;;
51459;SDS011;37534;39.772;2.718;2023-03-23T10:01:28;0.60;;;0.60;;
51459;SDS011;37534;39.772;2.718;2023-03-23T10:04:11;1.48;;;0.63;;
51459;SDS011;37534;39.772;2.718;2023-03-23T10:06:47;0.63;;;0.63;;
51459;SDS011;37534;39.772;2.718;2023-03-23T10:09:14;0.65;;;0.65;;
51459;SDS011;37534;39.772;2.718;2023-03-23T10:11:55;1.75;;;0.60;;
51459;SDS011;37534;39.772;2.718;2023-03-23T10:17:22;0.57;;;0.57;;
51459;SDS011;37534;39.772;2.718;2023-03-23T10:23:00;1.63;;;0.63;;
51459;SDS011;37534;39.772;2.718;2023-03-23T10:25:35;1.10;;;0.57;;
51459;SDS011;37534;39.772;2.718;2023-03-23T10:28:12;0.73;;;0.35;;
51459;SDS011;37534;39.772;2.718;2023-03-23T10:30:44;0.82;;;0.70;;
51459;SDS011;37534;39.772;2.718;2023-03-23T10:33:36;2.78;;;0.40;;
51459;SDS011;37534;39.772;2.718;2023-03-23T10:36:13;3.13;;;0.57;;
51459;SDS011;37534;39.772;2.718;2023-03-23T10:38:45;3.22;;;0.80;;
51459;SDS011;37534;39.772;2.718;2023-03-23T10:41:16;1.50;;;0.40;;
51459;SDS011;37534;39.772;2.718;2023-03-23T10:43:44;0.63;;;0.45;;
51459;SDS011;37534;39.772;2.718;2023-03-23T10:48:59;3.92;;;0.32;;
51459;SDS011;37534;39.772;2.718;2023-03-23T10:51:32;1.55;;;0.35;;
51459;SDS011;37534;39.772;2.718;2023-03-23T10:54:06;1.23;;;0.60;;
51459;SDS011;37534;39.772;2.718;2023-03-23T10:56:40;2.70;;;0.90;;
51459;SDS011;37534;39.772;2.718;2023-03-23T10:59:14;1.15;;;0.70;;
51459;SDS011;37534;39.772;2.718;2023-03-23T11:01:45;6.72;;;0.93;;
51459;SDS011;37534;39.772;2.718;2023-03-23T11:04:15;3.53;;;0.93;;
51459;SDS011;37534;39.772;2.718;2023-03-23T11:06:46;1.38;;;1.27;;
51459;SDS011;37534;39.772;2.718;2023-03-23T11:09:16;1.48;;;1.00;;
51459;SDS011;37534;39.772;2.718;2023-03-23T11:11:48;0.60;;;0.60;;
51459;SDS011;37534;39.772;2.718;2023-03-23T11:14:17;2.53;;;1.00;;
51459;SDS011;37534;39.772;2.718;2023-03-23T11:17:04;0.77;;;0.50;;
51459;SDS011;37534;39.772;2.718;2023-03-23T11:19:44;1.70;;;1.10;;
51459;SDS011;37534;39.772;2.718;2023-03-23T11:22:15;1.92;;;1.13;;
51459;SDS011;37534;39.772;2.718;2023-03-23T11:24:47;0.50;;;0.50;;
51459;SDS011;37534;39.772;2.718;2023-03-23T11:27:17;3.83;;;1.02;;
51459;SDS011;37534;39.772;2.718;2023-03-23T11:32:34;2.05;;;0.90;;
51459;SDS011;37534;39.772;2.718;2023-03-23T11:35:04;0.95;;;0.55;;
51459;SDS011;37534;39.772;2.718;2023-03-23T11:37:41;5.13;;;0.63;;
51459;SDS011;37534;39.772;2.718;2023-03-23T11:45:34;2.38;;;1.00;;
51459;SDS011;37534;39.772;2.718;2023-03-23T11:50:35;4.03;;;0.65;;
51459;SDS011;37534;39.772;2.718;2023-03-23T11:56:09;1.27;;;0.50;;
51459;SDS011;37534;39.772;2.718;2023-03-23T11:58:40;0.45;;;0.43;;
51459;SDS011;37534;39.772;2.718;2023-03-23T12:01:11;2.55;;;0.68;;
51459;SDS011;37534;39.772;2.718;2023-03-23T12:06:57;1.42;;;0.60;;
51459;SDS011;37534;39.772;2.718;2023-03-23T12:12:38;1.88;;;0.70;;
51459;SDS011;37534;39.772;2.718;2023-03-23T12:23:22;1.52;;;1.10;;
51459;SDS011;37534;39.772;2.718;2023-03-23T12:37:15;0.45;;;0.45;;
51459;SDS011;37534;39.772;2.718;2023-03-23T12:42:52;0.85;;;0.63;;
51459;SDS011;37534;39.772;2.718;2023-03-23T12:47:58;0.57;;;0.32;;
51459;SDS011;37534;39.772;2.718;2023-03-23T12:55:48;0.68;;;0.57;;
51459;SDS011;37534;39.772;2.718;2023-03-23T12:58:20;3.22;;;0.70;;
51459;SDS011;37534;39.772;2.718;2023-03-23T13:01:06;2.30;;;0.68;;
51459;SDS011;37534;39.772;2.718;2023-03-23T13:03:42;1.95;;;0.80;;
51459;SDS011;37534;39.772;2.718;2023-03-23T13:06:22;0.82;;;0.47;;
51459;SDS011;37534;39.772;2.718;2023-03-23T13:09:00;1.33;;;0.68;;
51459;SDS011;37534;39.772;2.718;2023-03-23T13:13:55;0.70;;;0.65;;
51459;SDS011;37534;39.772;2.718;2023-03-23T13:20:23;0.85;;;0.40;;
51459;SDS011;37534;39.772;2.718;2023-03-23T13:23:16;4.32;;;1.10;;
51459;SDS011;37534;39.772;2.718;2023-03-23T13:28:25;5.78;;;0.40;;
51459;SDS011;37534;39.772;2.718;2023-03-23T13:31:00;0.98;;;0.77;;
51459;SDS011;37534;39.772;2.718;2023-03-23T13:33:36;1.90;;;0.47;;
51459;SDS011;37534;39.772;2.718;2023-03-23T13:36:04;1.25;;;0.57;;
51459;SDS011;37534;39.772;2.718;2023-03-23T13:38:51;1.15;;;0.50;;
51459;SDS011;37534;39.772;2.718;2023-03-23T13:41:17;0.55;;;0.55;;
51459;SDS011;37534;39.772;2.718;2023-03-23T13:43:46;0.73;;;0.40;;
51459;SDS011;37534;39.772;2.718;2023-03-23T13:46:23;0.68;;;0.40;;
51459;SDS011;37534;39.772;2.718;2023-03-23T13:49:02;0.70;;;0.55;;
51459;SDS011;37534;39.772;2.718;2023-03-23T13:51:35;1.30;;;0.60;;
51459;SDS011;37534;39.772;2.718;2023-03-23T13:54:20;0.45;;;0.45;;
51459;SDS011;37534;39.772;2.718;2023-03-23T13:56:56;1.27;;;0.80;;
51459;SDS011;37534;39.772;2.718;2023-03-23T14:01:51;3.80;;;0.70;;
51459;SDS011;37534;39.772;2.718;2023-03-23T14:04:18;1.00;;;0.95;;
51459;SDS011;37534;39.772;2.718;2023-03-23T14:06:46;1.08;;;0.57;;
51459;SDS011;37534;39.772;2.718;2023-03-23T14:12:00;1.15;;;0.50;;
51459;SDS011;37534;39.772;2.718;2023-03-23T14:14:38;0.60;;;0.60;;
51459;SDS011;37534;39.772;2.718;2023-03-23T14:17:13;0.60;;;0.60;;
51459;SDS011;37534;39.772;2.718;2023-03-23T14:19:42;0.98;;;0.68;;
51459;SDS011;37534;39.772;2.718;2023-03-23T14:22:18;0.75;;;0.40;;
51459;SDS011;37534;39.772;2.718;2023-03-23T14:25:01;1.33;;;0.60;;
51459;SDS011;37534;39.772;2.718;2023-03-23T14:27:38;0.57;;;0.57;;
51459;SDS011;37534;39.772;2.718;2023-03-23T14:30:07;0.85;;;0.60;;
51459;SDS011;37534;39.772;2.718;2023-03-23T14:32:40;3.60;;;0.60;;
51459;SDS011;37534;39.772;2.718;2023-03-23T14:35:29;2.10;;;0.80;;
51459;SDS011;37534;39.772;2.718;2023-03-23T14:37:56;2.10;;;1.00;;
51459;SDS011;37534;39.772;2.718;2023-03-23T14:40:22;1.70;;;0.68;;
51459;SDS011;37534;39.772;2.718;2023-03-23T14:42:51;1.65;;;0.80;;
51459;SDS011;37534;39.772;2.718;2023-03-23T14:45:19;1.08;;;0.50;;
51459;SDS011;37534;39.772;2.718;2023-03-23T14:47:47;2.05;;;0.75;;
51459;SDS011;37534;39.772;2.718;2023-03-23T14:50:29;3.20;;;1.38;;
51459;SDS011;37534;39.772;2.718;2023-03-23T14:53:00;1.75;;;0.90;;
51459;SDS011;37534;39.772;2.718;2023-03-23T14:55:35;1.95;;;0.93;;
51459;SDS011;37534;39.772;2.718;2023-03-23T14:58:13;1.00;;;0.70;;
51459;SDS011;37534;39.772;2.718;2023-03-23T15:00:52;2.05;;;0.82;;
51459;SDS011;37534;39.772;2.718;2023-03-23T15:03:19;2.30;;;0.55;;
51459;SDS011;37534;39.772;2.718;2023-03-23T15:05:48;1.42;;;0.88;;
51459;SDS011;37534;39.772;2.718;2023-03-23T15:08:19;0.43;;;0.43;;
51459;SDS011;37534;39.772;2.718;2023-03-23T15:10:58;1.25;;;0.75;;
51459;SDS011;37534;39.772;2.718;2023-03-23T15:13:53;1.40;;;0.85;;
51459;SDS011;37534;39.772;2.718;2023-03-23T15:16:26;1.02;;;0.80;;
51459;SDS011;37534;39.772;2.718;2023-03-23T15:18:54;0.70;;;0.68;;
51459;SDS011;37534;39.772;2.718;2023-03-23T15:21:27;1.55;;;0.77;;
51459;SDS011;37534;39.772;2.718;2023-03-23T15:23:54;1.83;;;0.63;;
51459;SDS011;37534;39.772;2.718;2023-03-23T15:26:25;0.57;;;0.57;;
51459;SDS011;37534;39.772;2.718;2023-03-23T15:31:34;1.83;;;0.90;;
51459;SDS011;37534;39.772;2.718;2023-03-23T15:34:04;1.33;;;0.50;;
51459;SDS011;37534;39.772;2.718;2023-03-23T15:36:33;2.40;;;0.65;;
51459;SDS011;37534;39.772;2.718;2023-03-23T15:39:00;2.03;;;0.45;;
51459;SDS011;37534;39.772;2.718;2023-03-23T15:41:29;0.85;;;0.60;;
51459;SDS011;37534;39.772;2.718;2023-03-23T15:43:58;3.40;;;1.05;;
51459;SDS011;37534;39.772;2.718;2023-03-23T15:46:35;2.95;;;1.13;;
51459;SDS011;37534;39.772;2.718;2023-03-23T15:49:14;0.85;;;0.60;;
51459;SDS011;37534;39.772;2.718;2023-03-23T15:51:41;1.55;;;0.68;;
51459;SDS011;37534;39.772;2.718;2023-03-23T15:54:12;1.40;;;0.80;;
51459;SDS011;37534;39.772;2.718;2023-03-23T15:56:39;2.25;;;1.08;;
51459;SDS011;37534;39.772;2.718;2023-03-23T15:59:05;2.28;;;1.10;;
51459;SDS011;37534;39.772;2.718;2023-03-23T16:01:32;1.13;;;1.02;;
51459;SDS011;37534;39.772;2.718;2023-03-23T16:04:03;0.40;;;0.35;;
51459;SDS011;37534;39.772;2.718;2023-03-23T16:06:32;0.95;;;0.60;;
51459;SDS011;37534;39.772;2.718;2023-03-23T16:08:59;0.95;;;0.70;;
51459;SDS011;37534;39.772;2.718;2023-03-23T16:11:28;2.00;;;0.85;;
51459;SDS011;37534;39.772;2.718;2023-03-23T16:13:55;1.65;;;0.85;;
51459;SDS011;37534;39.772;2.718;2023-03-23T16:16:22;0.88;;;0.70;;
51459;SDS011;37534;39.772;2.718;2023-03-23T16:18:51;1.77;;;0.73;;
51459;SDS011;37534;39.772;2.718;2023-03-23T16:21:17;0.63;;;0.60;;
51459;SDS011;37534;39.772;2.718;2023-03-23T16:23:42;0.75;;;0.75;;
51459;SDS011;37534;39.772;2.718;2023-03-23T16:26:10;0.82;;;0.82;;
51459;SDS011;37534;39.772;2.718;2023-03-23T16:28:36;1.27;;;0.77;;
51459;SDS011;37534;39.772;2.718;2023-03-23T16:31:02;1.13;;;0.63;;
51459;SDS011;37534;39.772;2.718;2023-03-23T16:33:28;3.53;;;1.45;;
51459;SDS011;37534;39.772;2.718;2023-03-23T16:35:54;4.70;;;1.10;;
51459;SDS011;37534;39.772;2.718;2023-03-23T16:38:21;0.45;;;0.45;;
51459;SDS011;37534;39.772;2.718;2023-03-23T16:40:47;1.88;;;0.80;;
51459;SDS011;37534;39.772;2.718;2023-03-23T16:43:13;1.33;;;0.75;;
51459;SDS011;37534;39.772;2.718;2023-03-23T16:45:40;1.05;;;0.60;;
51459;SDS011;37534;39.772;2.718;2023-03-23T16:48:07;0.52;;;0.32;;
51459;SDS011;37534;39.772;2.718;2023-03-23T16:50:33;2.33;;;0.73;;